sensor_id;sensor_type;location;lat;lon;timestamp;temperature;humidity
15959;DHT22;8078;47.822;9.402;2022-12-18T00:01:42;-6.20;99.90
15959;DHT22;8078;47.822;9.402;2022-12-18T00:04:18;-6.20;99.90
15959;DHT22;8078;47.822;9.402;2022-12-18T00:06:45;-6.20;99.90
15959;DHT22;8078;47.822;9.402;2022-12-18T00:09:10;-6.10;99.90
15959;DHT22;8078;47.822;9.402;2022-12-18T00:11:36;-6.10;99.90
15959;DHT22;8078;47.822;9.402;2022-12-18T00:14:02;-6.10;99.90
15959;DHT22;8078;47.822;9.402;2022-12-18T00:16:29;-6.10;99.90
15959;DHT22;8078;47.822;9.402;2022-12-18T00:18:56;-6.00;99.90
15959;DHT22;8078;47.822;9.402;2022-12-18T00:21:24;-6.00;99.90
15959;DHT22;8078;47.822;9.402;2022-12-18T00:23:50;-6.00;99.90
15959;DHT22;8078;47.822;9.402;2022-12-18T00:26:24;-6.10;99.90
15959;DHT22;8078;47.822;9.402;2022-12-18T00:28:51;-6.10;99.90
15959;DHT22;8078;47.822;9.402;2022-12-18T00:31:20;-6.00;99.90
15959;DHT22;8078;47.822;9.402;2022-12-18T00:33:46;-6.00;99.90
15959;DHT22;8078;47.822;9.402;2022-12-18T00:36:14;-6.00;99.90
15959;DHT22;8078;47.822;9.402;2022-12-18T00:38:41;-6.00;99.90
15959;DHT22;8078;47.822;9.402;2022-12-18T00:41:08;-6.00;99.90
15959;DHT22;8078;47.822;9.402;2022-12-18T00:43:34;-5.90;99.90
15959;DHT22;8078;47.822;9.402;2022-12-18T00:45:59;-5.90;99.90
15959;DHT22;8078;47.822;9.402;2022-12-18T00:48:25;-5.90;99.90
15959;DHT22;8078;47.822;9.402;2022-12-18T00:50:51;-5.80;99.90
15959;DHT22;8078;47.822;9.402;2022-12-18T00:53:17;-5.80;99.90
15959;DHT22;8078;47.822;9.402;2022-12-18T00:55:43;-5.90;99.90
15959;DHT22;8078;47.822;9.402;2022-12-18T00:58:10;-5.90;99.90
15959;DHT22;8078;47.822;9.402;2022-12-18T01:00:37;-5.90;99.90
15959;DHT22;8078;47.822;9.402;2022-12-18T01:03:03;-5.90;99.90
15959;DHT22;8078;47.822;9.402;2022-12-18T01:05:29;-5.90;99.90
15959;DHT22;8078;47.822;9.402;2022-12-18T01:07:56;-5.90;99.90
15959;DHT22;8078;47.822;9.402;2022-12-18T01:10:22;-5.90;99.90
15959;DHT22;8078;47.822;9.402;2022-12-18T01:12:48;-5.90;99.90
15959;DHT22;8078;47.822;9.402;2022-12-18T01:15:14;-5.90;99.90
15959;DHT22;8078;47.822;9.402;2022-12-18T01:17:40;-5.90;99.90
15959;DHT22;8078;47.822;9.402;2022-12-18T01:20:06;-5.90;99.90
15959;DHT22;8078;47.822;9.402;2022-12-18T01:22:32;-5.90;99.90
15959;DHT22;8078;47.822;9.402;2022-12-18T01:24:57;-5.90;99.90
15959;DHT22;8078;47.822;9.402;2022-12-18T01:27:23;-5.80;99.90
15959;DHT22;8078;47.822;9.402;2022-12-18T01:29:49;-5.80;99.90
15959;DHT22;8078;47.822;9.402;2022-12-18T01:32:15;-5.80;99.90
15959;DHT22;8078;47.822;9.402;2022-12-18T01:34:40;-5.80;99.90
15959;DHT22;8078;47.822;9.402;2022-12-18T01:37:06;-5.80;99.90
15959;DHT22;8078;47.822;9.402;2022-12-18T01:39:32;-5.90;99.90
15959;DHT22;8078;47.822;9.402;2022-12-18T01:41:59;-5.90;99.90
15959;DHT22;8078;47.822;9.402;2022-12-18T01:50:14;-5.80;99.90
15959;DHT22;8078;47.822;9.402;2022-12-18T01:52:43;-5.80;99.90
15959;DHT22;8078;47.822;9.402;2022-12-18T01:55:11;-5.80;99.90
15959;DHT22;8078;47.822;9.402;2022-12-18T01:57:38;-5.80;99.90
15959;DHT22;8078;47.822;9.402;2022-12-18T02:00:09;-5.70;99.90
15959;DHT22;8078;47.822;9.402;2022-12-18T02:02:35;-5.70;99.90
15959;DHT22;8078;47.822;9.402;2022-12-18T02:05:02;-5.60;99.90
15959;DHT22;8078;47.822;9.402;2022-12-18T02:07:54;-5.70;99.90
15959;DHT22;8078;47.822;9.402;2022-12-18T02:13:19;-5.70;99.90
15959;DHT22;8078;47.822;9.402;2022-12-18T02:18:36;-5.70;99.90
15959;DHT22;8078;47.822;9.402;2022-12-18T02:26:55;-5.70;99.90
15959;DHT22;8078;47.822;9.402;2022-12-18T02:29:33;-5.50;99.90
15959;DHT22;8078;47.822;9.402;2022-12-18T02:32:00;-5.70;99.90
15959;DHT22;8078;47.822;9.402;2022-12-18T02:34:31;-5.70;99.90
15959;DHT22;8078;47.822;9.402;2022-12-18T02:36:59;-5.70;99.90
15959;DHT22;8078;47.822;9.402;2022-12-18T02:39:26;-5.80;99.90
15959;DHT22;8078;47.822;9.402;2022-12-18T02:41:53;-5.80;99.90
15959;DHT22;8078;47.822;9.402;2022-12-18T02:44:18;-5.80;99.90
15959;DHT22;8078;47.822;9.402;2022-12-18T02:46:50;-5.70;99.90
15959;DHT22;8078;47.822;9.402;2022-12-18T02:55:19;-5.70;99.90
15959;DHT22;8078;47.822;9.402;2022-12-18T02:57:56;-5.80;99.90
15959;DHT22;8078;47.822;9.402;2022-12-18T03:00:51;-5.80;99.90
15959;DHT22;8078;47.822;9.402;2022-12-18T03:03:26;-5.70;99.90
15959;DHT22;8078;47.822;9.402;2022-12-18T03:05:56;-5.70;99.90
15959;DHT22;8078;47.822;9.402;2022-12-18T03:08:27;-5.80;99.90
15959;DHT22;8078;47.822;9.402;2022-12-18T03:11:02;-5.80;99.90
15959;DHT22;8078;47.822;9.402;2022-12-18T03:13:34;-5.80;99.90
15959;DHT22;8078;47.822;9.402;2022-12-18T03:16:02;-5.70;99.90
15959;DHT22;8078;47.822;9.402;2022-12-18T03:18:38;-5.70;99.90
15959;DHT22;8078;47.822;9.402;2022-12-18T03:21:06;-5.60;99.90
15959;DHT22;8078;47.822;9.402;2022-12-18T03:23:36;-5.70;99.90
15959;DHT22;8078;47.822;9.402;2022-12-18T03:26:07;-5.70;99.90
15959;DHT22;8078;47.822;9.402;2022-12-18T03:28:38;-5.60;99.90
15959;DHT22;8078;47.822;9.402;2022-12-18T03:31:05;-5.50;99.90
15959;DHT22;8078;47.822;9.402;2022-12-18T03:36:05;-5.60;99.90
15959;DHT22;8078;47.822;9.402;2022-12-18T03:38:30;-5.70;99.90
15959;DHT22;8078;47.822;9.402;2022-12-18T03:41:32;-5.70;99.90
15959;DHT22;8078;47.822;9.402;2022-12-18T03:44:21;-5.70;99.90
15959;DHT22;8078;47.822;9.402;2022-12-18T03:49:50;-5.50;99.90
15959;DHT22;8078;47.822;9.402;2022-12-18T03:52:32;-5.50;99.90
15959;DHT22;8078;47.822;9.402;2022-12-18T03:54:59;-5.50;99.90
15959;DHT22;8078;47.822;9.402;2022-12-18T03:57:28;-5.60;99.90
15959;DHT22;8078;47.822;9.402;2022-12-18T03:59:59;-5.60;99.90
15959;DHT22;8078;47.822;9.402;2022-12-18T04:02:26;-5.60;99.90
15959;DHT22;8078;47.822;9.402;2022-12-18T04:04:57;-5.60;99.90
15959;DHT22;8078;47.822;9.402;2022-12-18T04:07:25;-5.60;99.90
15959;DHT22;8078;47.822;9.402;2022-12-18T04:09:55;-5.50;99.90
15959;DHT22;8078;47.822;9.402;2022-12-18T04:12:24;-5.50;99.90
15959;DHT22;8078;47.822;9.402;2022-12-18T04:14:51;-5.60;99.90
15959;DHT22;8078;47.822;9.402;2022-12-18T04:17:17;-5.60;99.90
15959;DHT22;8078;47.822;9.402;2022-12-18T04:19:42;-5.70;99.90
15959;DHT22;8078;47.822;9.402;2022-12-18T04:22:09;-5.60;99.90
15959;DHT22;8078;47.822;9.402;2022-12-18T04:24:35;-5.70;99.90
15959;DHT22;8078;47.822;9.402;2022-12-18T04:27:01;-5.60;99.90
15959;DHT22;8078;47.822;9.402;2022-12-18T04:29:27;-5.70;99.90
15959;DHT22;8078;47.822;9.402;2022-12-18T04:31:52;-5.70;99.90
15959;DHT22;8078;47.822;9.402;2022-12-18T04:34:18;-5.60;99.90
15959;DHT22;8078;47.822;9.402;2022-12-18T04:36:43;-5.60;99.90
15959;DHT22;8078;47.822;9.402;2022-12-18T04:39:09;-5.60;99.90
15959;DHT22;8078;47.822;9.402;2022-12-18T04:41:34;-5.60;99.90
15959;DHT22;8078;47.822;9.402;2022-12-18T04:44:00;-5.60;99.90
15959;DHT22;8078;47.822;9.402;2022-12-18T04:46:26;-5.60;99.90
15959;DHT22;8078;47.822;9.402;2022-12-18T04:48:51;-5.50;99.90
15959;DHT22;8078;47.822;9.402;2022-12-18T04:51:17;-5.40;99.90
15959;DHT22;8078;47.822;9.402;2022-12-18T04:53:42;-5.30;99.90
15959;DHT22;8078;47.822;9.402;2022-12-18T04:56:10;-5.30;99.90
15959;DHT22;8078;47.822;9.402;2022-12-18T04:58:38;-5.30;99.90
15959;DHT22;8078;47.822;9.402;2022-12-18T05:01:04;-5.30;99.90
15959;DHT22;8078;47.822;9.402;2022-12-18T05:03:30;-5.30;99.90
15959;DHT22;8078;47.822;9.402;2022-12-18T05:05:56;-5.30;99.90
15959;DHT22;8078;47.822;9.402;2022-12-18T05:08:22;-5.40;99.90
15959;DHT22;8078;47.822;9.402;2022-12-18T05:10:48;-5.30;99.90
15959;DHT22;8078;47.822;9.402;2022-12-18T05:13:13;-5.30;99.90
15959;DHT22;8078;47.822;9.402;2022-12-18T05:15:39;-5.30;99.90
15959;DHT22;8078;47.822;9.402;2022-12-18T05:18:05;-5.30;99.90
15959;DHT22;8078;47.822;9.402;2022-12-18T05:20:31;-5.30;99.90
15959;DHT22;8078;47.822;9.402;2022-12-18T05:22:57;-5.30;99.90
15959;DHT22;8078;47.822;9.402;2022-12-18T05:25:22;-5.30;99.90
15959;DHT22;8078;47.822;9.402;2022-12-18T05:27:48;-5.40;99.90
15959;DHT22;8078;47.822;9.402;2022-12-18T05:30:15;-5.40;99.90
15959;DHT22;8078;47.822;9.402;2022-12-18T05:32:41;-5.40;99.90
15959;DHT22;8078;47.822;9.402;2022-12-18T05:35:08;-5.50;99.90
15959;DHT22;8078;47.822;9.402;2022-12-18T05:37:34;-5.50;99.90
15959;DHT22;8078;47.822;9.402;2022-12-18T05:40:00;-5.50;99.90
15959;DHT22;8078;47.822;9.402;2022-12-18T05:42:26;-5.70;99.90
15959;DHT22;8078;47.822;9.402;2022-12-18T05:44:51;-5.70;99.90
15959;DHT22;8078;47.822;9.402;2022-12-18T05:47:17;-5.70;99.90
15959;DHT22;8078;47.822;9.402;2022-12-18T05:49:42;-5.70;99.90
15959;DHT22;8078;47.822;9.402;2022-12-18T05:52:08;-5.60;99.90
15959;DHT22;8078;47.822;9.402;2022-12-18T05:54:34;-5.60;99.90
15959;DHT22;8078;47.822;9.402;2022-12-18T05:57:00;-5.60;99.90
15959;DHT22;8078;47.822;9.402;2022-12-18T05:59:25;-5.50;99.90
15959;DHT22;8078;47.822;9.402;2022-12-18T06:01:51;-5.40;99.90
15959;DHT22;8078;47.822;9.402;2022-12-18T06:04:17;-5.40;99.90
15959;DHT22;8078;47.822;9.402;2022-12-18T06:06:42;-5.40;99.90
15959;DHT22;8078;47.822;9.402;2022-12-18T06:09:08;-5.30;99.90
15959;DHT22;8078;47.822;9.402;2022-12-18T06:11:36;-5.40;99.90
15959;DHT22;8078;47.822;9.402;2022-12-18T06:14:03;-5.30;99.90
15959;DHT22;8078;47.822;9.402;2022-12-18T06:16:29;-5.40;99.90
15959;DHT22;8078;47.822;9.402;2022-12-18T06:18:59;-5.40;99.90
15959;DHT22;8078;47.822;9.402;2022-12-18T06:21:25;-5.40;99.90
15959;DHT22;8078;47.822;9.402;2022-12-18T06:23:51;-5.40;99.90
15959;DHT22;8078;47.822;9.402;2022-12-18T06:26:16;-5.40;99.90
15959;DHT22;8078;47.822;9.402;2022-12-18T06:28:42;-5.40;99.90
15959;DHT22;8078;47.822;9.402;2022-12-18T06:31:08;-5.40;99.90
15959;DHT22;8078;47.822;9.402;2022-12-18T06:33:34;-5.40;99.90
15959;DHT22;8078;47.822;9.402;2022-12-18T06:36:05;-5.40;99.90
15959;DHT22;8078;47.822;9.402;2022-12-18T06:38:32;-5.30;99.90
15959;DHT22;8078;47.822;9.402;2022-12-18T06:40:58;-5.30;99.90
15959;DHT22;8078;47.822;9.402;2022-12-18T06:43:23;-5.20;99.90
15959;DHT22;8078;47.822;9.402;2022-12-18T06:45:49;-5.30;99.90
15959;DHT22;8078;47.822;9.402;2022-12-18T06:48:21;-5.60;99.90
15959;DHT22;8078;47.822;9.402;2022-12-18T06:50:47;-5.60;99.90
15959;DHT22;8078;47.822;9.402;2022-12-18T06:53:12;-5.60;99.90
15959;DHT22;8078;47.822;9.402;2022-12-18T06:55:38;-5.80;99.90
15959;DHT22;8078;47.822;9.402;2022-12-18T06:58:04;-5.80;99.90
15959;DHT22;8078;47.822;9.402;2022-12-18T07:00:29;-5.70;99.90
15959;DHT22;8078;47.822;9.402;2022-12-18T07:02:55;-5.70;99.90
15959;DHT22;8078;47.822;9.402;2022-12-18T07:05:20;-5.60;99.90
15959;DHT22;8078;47.822;9.402;2022-12-18T07:07:46;-5.50;99.90
15959;DHT22;8078;47.822;9.402;2022-12-18T07:10:11;-5.60;99.90
15959;DHT22;8078;47.822;9.402;2022-12-18T07:12:37;-5.50;99.90
15959;DHT22;8078;47.822;9.402;2022-12-18T07:15:03;-5.50;99.90
15959;DHT22;8078;47.822;9.402;2022-12-18T07:17:29;-5.60;99.90
15959;DHT22;8078;47.822;9.402;2022-12-18T07:19:54;-5.70;99.90
15959;DHT22;8078;47.822;9.402;2022-12-18T07:22:20;-5.70;99.90
15959;DHT22;8078;47.822;9.402;2022-12-18T07:24:45;-5.60;99.90
15959;DHT22;8078;47.822;9.402;2022-12-18T07:27:11;-5.60;99.90
15959;DHT22;8078;47.822;9.402;2022-12-18T07:29:37;-5.50;99.90
15959;DHT22;8078;47.822;9.402;2022-12-18T07:32:02;-5.50;99.90
15959;DHT22;8078;47.822;9.402;2022-12-18T07:34:28;-5.50;99.90
15959;DHT22;8078;47.822;9.402;2022-12-18T07:36:53;-5.50;99.90
15959;DHT22;8078;47.822;9.402;2022-12-18T07:39:19;-5.70;99.90
15959;DHT22;8078;47.822;9.402;2022-12-18T07:41:44;-5.80;99.90
15959;DHT22;8078;47.822;9.402;2022-12-18T07:44:30;-6.00;99.90
15959;DHT22;8078;47.822;9.402;2022-12-18T07:46:55;-5.90;99.90
15959;DHT22;8078;47.822;9.402;2022-12-18T07:49:21;-5.80;99.90
15959;DHT22;8078;47.822;9.402;2022-12-18T07:51:46;-5.70;99.90
15959;DHT22;8078;47.822;9.402;2022-12-18T07:54:14;-5.70;99.90
15959;DHT22;8078;47.822;9.402;2022-12-18T07:56:40;-5.70;99.90
15959;DHT22;8078;47.822;9.402;2022-12-18T07:59:05;-5.50;99.90
15959;DHT22;8078;47.822;9.402;2022-12-18T08:01:31;-5.40;99.90
15959;DHT22;8078;47.822;9.402;2022-12-18T08:03:57;-5.40;99.90
15959;DHT22;8078;47.822;9.402;2022-12-18T08:06:22;-5.50;99.90
15959;DHT22;8078;47.822;9.402;2022-12-18T08:08:48;-5.50;99.90
15959;DHT22;8078;47.822;9.402;2022-12-18T08:11:14;-5.30;99.90
15959;DHT22;8078;47.822;9.402;2022-12-18T08:13:39;-5.40;99.90
15959;DHT22;8078;47.822;9.402;2022-12-18T08:16:06;-5.30;99.90
15959;DHT22;8078;47.822;9.402;2022-12-18T08:18:33;-5.20;99.90
15959;DHT22;8078;47.822;9.402;2022-12-18T08:21:29;-5.20;99.90
15959;DHT22;8078;47.822;9.402;2022-12-18T08:23:55;-5.00;99.90
15959;DHT22;8078;47.822;9.402;2022-12-18T08:26:22;-4.80;99.90
15959;DHT22;8078;47.822;9.402;2022-12-18T08:28:48;-5.20;99.90
15959;DHT22;8078;47.822;9.402;2022-12-18T08:31:14;-5.40;99.90
15959;DHT22;8078;47.822;9.402;2022-12-18T08:33:40;-5.50;99.90
15959;DHT22;8078;47.822;9.402;2022-12-18T08:36:07;-5.60;99.90
15959;DHT22;8078;47.822;9.402;2022-12-18T08:38:33;-5.70;99.90
15959;DHT22;8078;47.822;9.402;2022-12-18T08:41:03;-5.70;99.90
15959;DHT22;8078;47.822;9.402;2022-12-18T08:43:29;-5.40;99.90
15959;DHT22;8078;47.822;9.402;2022-12-18T08:46:14;-5.30;99.90
15959;DHT22;8078;47.822;9.402;2022-12-18T08:48:40;-5.00;99.90
15959;DHT22;8078;47.822;9.402;2022-12-18T08:51:05;-4.70;99.90
15959;DHT22;8078;47.822;9.402;2022-12-18T08:53:31;-5.10;99.90
15959;DHT22;8078;47.822;9.402;2022-12-18T08:55:57;-5.20;99.90
15959;DHT22;8078;47.822;9.402;2022-12-18T08:58:23;-5.00;99.90
15959;DHT22;8078;47.822;9.402;2022-12-18T09:00:48;-4.90;99.90
15959;DHT22;8078;47.822;9.402;2022-12-18T09:03:15;-4.90;99.90
15959;DHT22;8078;47.822;9.402;2022-12-18T09:05:41;-5.10;99.90
15959;DHT22;8078;47.822;9.402;2022-12-18T09:08:07;-5.40;99.90
15959;DHT22;8078;47.822;9.402;2022-12-18T09:10:33;-5.20;99.90
15959;DHT22;8078;47.822;9.402;2022-12-18T09:12:59;-5.10;99.90
15959;DHT22;8078;47.822;9.402;2022-12-18T09:15:25;-4.60;99.90
15959;DHT22;8078;47.822;9.402;2022-12-18T09:17:51;-4.20;99.90
15959;DHT22;8078;47.822;9.402;2022-12-18T09:20:18;-3.80;99.90
15959;DHT22;8078;47.822;9.402;2022-12-18T09:22:44;-3.80;99.90
15959;DHT22;8078;47.822;9.402;2022-12-18T09:25:09;-3.80;99.90
15959;DHT22;8078;47.822;9.402;2022-12-18T09:27:35;-3.60;99.90
15959;DHT22;8078;47.822;9.402;2022-12-18T09:30:01;-3.50;99.90
15959;DHT22;8078;47.822;9.402;2022-12-18T09:32:27;-3.20;99.90
15959;DHT22;8078;47.822;9.402;2022-12-18T09:34:52;-2.70;99.90
15959;DHT22;8078;47.822;9.402;2022-12-18T09:37:18;-2.70;99.90
15959;DHT22;8078;47.822;9.402;2022-12-18T09:39:43;-2.60;99.90
15959;DHT22;8078;47.822;9.402;2022-12-18T09:42:21;-2.40;99.90
15959;DHT22;8078;47.822;9.402;2022-12-18T09:44:52;-2.40;99.90
15959;DHT22;8078;47.822;9.402;2022-12-18T09:47:37;-2.40;99.90
15959;DHT22;8078;47.822;9.402;2022-12-18T09:50:20;-2.10;99.90
15959;DHT22;8078;47.822;9.402;2022-12-18T09:52:50;-1.90;99.90
15959;DHT22;8078;47.822;9.402;2022-12-18T09:57:50;-1.30;99.90
15959;DHT22;8078;47.822;9.402;2022-12-18T10:00:19;-1.10;99.90
15959;DHT22;8078;47.822;9.402;2022-12-18T10:02:46;-1.10;99.90
15959;DHT22;8078;47.822;9.402;2022-12-18T10:05:17;-1.90;99.90
15959;DHT22;8078;47.822;9.402;2022-12-18T10:07:59;-2.20;99.90
15959;DHT22;8078;47.822;9.402;2022-12-18T10:10:32;-2.70;99.90
15959;DHT22;8078;47.822;9.402;2022-12-18T10:16:16;-2.70;99.90
15959;DHT22;8078;47.822;9.402;2022-12-18T10:27:18;-2.30;99.90
15959;DHT22;8078;47.822;9.402;2022-12-18T10:29:44;-2.00;99.90
15959;DHT22;8078;47.822;9.402;2022-12-18T10:32:20;-1.80;99.90
15959;DHT22;8078;47.822;9.402;2022-12-18T10:34:48;-2.00;99.90
15959;DHT22;8078;47.822;9.402;2022-12-18T10:37:20;-2.00;99.90
15959;DHT22;8078;47.822;9.402;2022-12-18T10:40:07;-1.80;99.90
15959;DHT22;8078;47.822;9.402;2022-12-18T10:42:33;-1.80;99.90
15959;DHT22;8078;47.822;9.402;2022-12-18T10:45:13;-2.20;99.90
15959;DHT22;8078;47.822;9.402;2022-12-18T10:47:47;-2.40;99.90
15959;DHT22;8078;47.822;9.402;2022-12-18T10:50:32;-2.70;99.90
15959;DHT22;8078;47.822;9.402;2022-12-18T10:53:01;-2.80;99.90
15959;DHT22;8078;47.822;9.402;2022-12-18T10:55:35;-2.60;99.90
15959;DHT22;8078;47.822;9.402;2022-12-18T10:58:26;-2.50;99.90
15959;DHT22;8078;47.822;9.402;2022-12-18T11:01:14;-2.90;99.90
15959;DHT22;8078;47.822;9.402;2022-12-18T11:04:00;-2.70;99.90
15959;DHT22;8078;47.822;9.402;2022-12-18T11:06:26;-2.10;99.90
15959;DHT22;8078;47.822;9.402;2022-12-18T11:09:00;-1.60;99.90
15959;DHT22;8078;47.822;9.402;2022-12-18T11:11:26;-1.80;99.90
15959;DHT22;8078;47.822;9.402;2022-12-18T11:16:34;-2.70;99.90
15959;DHT22;8078;47.822;9.402;2022-12-18T11:19:21;-3.50;99.90
15959;DHT22;8078;47.822;9.402;2022-12-18T11:21:49;-3.10;99.90
15959;DHT22;8078;47.822;9.402;2022-12-18T11:24:41;-2.30;99.90
15959;DHT22;8078;47.822;9.402;2022-12-18T11:27:17;-1.70;99.90
15959;DHT22;8078;47.822;9.402;2022-12-18T11:29:43;-1.50;99.90
15959;DHT22;8078;47.822;9.402;2022-12-18T11:34:46;-1.50;99.90
15959;DHT22;8078;47.822;9.402;2022-12-18T11:37:15;-1.20;99.90
15959;DHT22;8078;47.822;9.402;2022-12-18T11:39:55;-1.00;99.90
15959;DHT22;8078;47.822;9.402;2022-12-18T11:42:56;-0.70;99.90
15959;DHT22;8078;47.822;9.402;2022-12-18T11:45:31;-0.60;99.90
15959;DHT22;8078;47.822;9.402;2022-12-18T11:48:18;-0.70;99.90
15959;DHT22;8078;47.822;9.402;2022-12-18T11:50:57;0.00;99.90
15959;DHT22;8078;47.822;9.402;2022-12-18T11:53:25;0.20;99.90
15959;DHT22;8078;47.822;9.402;2022-12-18T11:58:57;-0.20;99.90
15959;DHT22;8078;47.822;9.402;2022-12-18T12:07:38;0.60;99.90
15959;DHT22;8078;47.822;9.402;2022-12-18T12:13:02;0.50;99.90
15959;DHT22;8078;47.822;9.402;2022-12-18T12:15:48;0.40;99.90
15959;DHT22;8078;47.822;9.402;2022-12-18T12:18:24;-1.40;99.90
15959;DHT22;8078;47.822;9.402;2022-12-18T12:21:17;-2.60;99.90
15959;DHT22;8078;47.822;9.402;2022-12-18T12:24:12;-2.40;99.90
15959;DHT22;8078;47.822;9.402;2022-12-18T12:29:56;-1.40;99.90
15959;DHT22;8078;47.822;9.402;2022-12-18T12:40:52;-2.70;99.90
15959;DHT22;8078;47.822;9.402;2022-12-18T12:43:46;-2.80;99.90
15959;DHT22;8078;47.822;9.402;2022-12-18T12:46:16;-3.00;99.90
15959;DHT22;8078;47.822;9.402;2022-12-18T12:48:46;-3.30;99.90
15959;DHT22;8078;47.822;9.402;2022-12-18T12:51:23;-3.30;99.90
15959;DHT22;8078;47.822;9.402;2022-12-18T12:53:49;-3.10;99.90
15959;DHT22;8078;47.822;9.402;2022-12-18T12:56:17;-3.10;99.90
15959;DHT22;8078;47.822;9.402;2022-12-18T12:58:50;-3.00;99.90
15959;DHT22;8078;47.822;9.402;2022-12-18T13:08:56;-2.80;99.90
15959;DHT22;8078;47.822;9.402;2022-12-18T13:11:38;-3.20;99.90
15959;DHT22;8078;47.822;9.402;2022-12-18T13:14:34;-3.30;99.90
15959;DHT22;8078;47.822;9.402;2022-12-18T13:19:55;-4.00;99.90
15959;DHT22;8078;47.822;9.402;2022-12-18T13:22:40;-4.40;99.90
15959;DHT22;8078;47.822;9.402;2022-12-18T13:25:38;-4.30;99.90
15959;DHT22;8078;47.822;9.402;2022-12-18T13:28:17;-4.20;99.90
15959;DHT22;8078;47.822;9.402;2022-12-18T13:30:48;-4.20;99.90
15959;DHT22;8078;47.822;9.402;2022-12-18T13:38:39;-4.30;99.90
15959;DHT22;8078;47.822;9.402;2022-12-18T13:43:46;-4.00;99.90
15959;DHT22;8078;47.822;9.402;2022-12-18T13:46:19;-3.30;99.90
15959;DHT22;8078;47.822;9.402;2022-12-18T13:49:02;-2.50;99.90
15959;DHT22;8078;47.822;9.402;2022-12-18T13:51:29;-2.70;99.90
15959;DHT22;8078;47.822;9.402;2022-12-18T13:53:59;-3.20;99.90
15959;DHT22;8078;47.822;9.402;2022-12-18T13:56:28;-3.30;99.90
15959;DHT22;8078;47.822;9.402;2022-12-18T13:59:33;-3.40;99.90
15959;DHT22;8078;47.822;9.402;2022-12-18T14:02:20;-3.50;99.90
15959;DHT22;8078;47.822;9.402;2022-12-18T14:04:48;-3.70;99.90
15959;DHT22;8078;47.822;9.402;2022-12-18T14:07:28;-3.70;99.90
15959;DHT22;8078;47.822;9.402;2022-12-18T14:09:59;-4.00;99.90
15959;DHT22;8078;47.822;9.402;2022-12-18T14:12:31;-4.10;99.90
15959;DHT22;8078;47.822;9.402;2022-12-18T14:15:33;-4.00;99.90
15959;DHT22;8078;47.822;9.402;2022-12-18T14:18:02;-3.90;99.90
15959;DHT22;8078;47.822;9.402;2022-12-18T14:20:31;-4.00;99.90
15959;DHT22;8078;47.822;9.402;2022-12-18T14:22:58;-4.00;99.90
15959;DHT22;8078;47.822;9.402;2022-12-18T14:25:28;-4.10;99.90
15959;DHT22;8078;47.822;9.402;2022-12-18T14:30:37;-4.30;99.90
15959;DHT22;8078;47.822;9.402;2022-12-18T14:33:05;-4.40;99.90
15959;DHT22;8078;47.822;9.402;2022-12-18T14:35:33;-4.50;99.90
15959;DHT22;8078;47.822;9.402;2022-12-18T14:38:26;-4.40;99.90
15959;DHT22;8078;47.822;9.402;2022-12-18T14:41:01;-4.40;99.90
15959;DHT22;8078;47.822;9.402;2022-12-18T14:43:29;-4.30;99.90
15959;DHT22;8078;47.822;9.402;2022-12-18T14:45:55;-4.40;99.90
15959;DHT22;8078;47.822;9.402;2022-12-18T14:48:34;-4.40;99.90
15959;DHT22;8078;47.822;9.402;2022-12-18T14:51:06;-4.40;99.90
15959;DHT22;8078;47.822;9.402;2022-12-18T14:53:55;-4.50;99.90
15959;DHT22;8078;47.822;9.402;2022-12-18T14:58:58;-4.60;99.90
15959;DHT22;8078;47.822;9.402;2022-12-18T15:01:39;-4.60;99.90
15959;DHT22;8078;47.822;9.402;2022-12-18T15:04:32;-4.40;99.90
15959;DHT22;8078;47.822;9.402;2022-12-18T15:09:37;-4.40;99.90
15959;DHT22;8078;47.822;9.402;2022-12-18T15:12:03;-4.40;99.90
15959;DHT22;8078;47.822;9.402;2022-12-18T15:14:40;-4.50;99.90
15959;DHT22;8078;47.822;9.402;2022-12-18T15:17:18;-4.50;99.90
15959;DHT22;8078;47.822;9.402;2022-12-18T15:19:46;-4.50;99.90
15959;DHT22;8078;47.822;9.402;2022-12-18T15:22:33;-4.40;99.90
15959;DHT22;8078;47.822;9.402;2022-12-18T15:25:00;-4.40;99.90
15959;DHT22;8078;47.822;9.402;2022-12-18T15:27:32;-4.60;99.90
15959;DHT22;8078;47.822;9.402;2022-12-18T15:32:36;-4.70;99.90
15959;DHT22;8078;47.822;9.402;2022-12-18T15:35:12;-4.80;99.90
15959;DHT22;8078;47.822;9.402;2022-12-18T15:37:42;-4.80;99.90
15959;DHT22;8078;47.822;9.402;2022-12-18T15:40:16;-4.70;99.90
15959;DHT22;8078;47.822;9.402;2022-12-18T15:42:42;-4.80;99.90
15959;DHT22;8078;47.822;9.402;2022-12-18T15:45:27;-4.80;99.90
15959;DHT22;8078;47.822;9.402;2022-12-18T15:47:53;-4.80;99.90
15959;DHT22;8078;47.822;9.402;2022-12-18T15:50:18;-4.80;99.90
15959;DHT22;8078;47.822;9.402;2022-12-18T15:52:45;-4.90;99.90
15959;DHT22;8078;47.822;9.402;2022-12-18T15:55:17;-4.80;99.90
15959;DHT22;8078;47.822;9.402;2022-12-18T15:58:03;-4.80;99.90
15959;DHT22;8078;47.822;9.402;2022-12-18T16:00:28;-4.70;99.90
15959;DHT22;8078;47.822;9.402;2022-12-18T16:02:54;-4.70;99.90
15959;DHT22;8078;47.822;9.402;2022-12-18T16:05:20;-4.80;99.90
15959;DHT22;8078;47.822;9.402;2022-12-18T16:07:47;-4.80;99.90
15959;DHT22;8078;47.822;9.402;2022-12-18T16:10:13;-4.80;99.90
15959;DHT22;8078;47.822;9.402;2022-12-18T16:12:38;-4.80;99.90
15959;DHT22;8078;47.822;9.402;2022-12-18T16:15:05;-4.70;99.90
15959;DHT22;8078;47.822;9.402;2022-12-18T16:17:31;-4.70;99.90
15959;DHT22;8078;47.822;9.402;2022-12-18T16:19:57;-4.60;99.90
15959;DHT22;8078;47.822;9.402;2022-12-18T16:22:28;-4.60;99.90
15959;DHT22;8078;47.822;9.402;2022-12-18T16:24:55;-4.70;99.90
15959;DHT22;8078;47.822;9.402;2022-12-18T16:27:23;-4.80;99.90
15959;DHT22;8078;47.822;9.402;2022-12-18T16:29:49;-4.70;99.90
15959;DHT22;8078;47.822;9.402;2022-12-18T16:32:17;-4.60;99.90
15959;DHT22;8078;47.822;9.402;2022-12-18T16:34:44;-4.70;99.90
15959;DHT22;8078;47.822;9.402;2022-12-18T16:37:12;-4.70;99.90
15959;DHT22;8078;47.822;9.402;2022-12-18T16:39:38;-4.80;99.90
15959;DHT22;8078;47.822;9.402;2022-12-18T16:42:13;-4.90;99.90
15959;DHT22;8078;47.822;9.402;2022-12-18T16:44:42;-4.80;99.90
15959;DHT22;8078;47.822;9.402;2022-12-18T16:47:07;-4.80;99.90
15959;DHT22;8078;47.822;9.402;2022-12-18T16:49:33;-4.80;99.90
15959;DHT22;8078;47.822;9.402;2022-12-18T16:52:03;-4.70;99.90
15959;DHT22;8078;47.822;9.402;2022-12-18T16:54:29;-4.80;99.90
15959;DHT22;8078;47.822;9.402;2022-12-18T16:56:55;-4.80;99.90
15959;DHT22;8078;47.822;9.402;2022-12-18T16:59:20;-4.80;99.90
15959;DHT22;8078;47.822;9.402;2022-12-18T17:01:46;-4.90;99.90
15959;DHT22;8078;47.822;9.402;2022-12-18T17:04:12;-4.80;99.90
15959;DHT22;8078;47.822;9.402;2022-12-18T17:06:43;-4.80;99.90
15959;DHT22;8078;47.822;9.402;2022-12-18T17:09:13;-4.90;99.90
15959;DHT22;8078;47.822;9.402;2022-12-18T17:11:39;-4.80;99.90
15959;DHT22;8078;47.822;9.402;2022-12-18T17:14:06;-4.80;99.90
15959;DHT22;8078;47.822;9.402;2022-12-18T17:16:32;-4.80;99.90
15959;DHT22;8078;47.822;9.402;2022-12-18T17:18:58;-4.80;99.90
15959;DHT22;8078;47.822;9.402;2022-12-18T17:21:24;-4.80;99.90
15959;DHT22;8078;47.822;9.402;2022-12-18T17:23:49;-4.80;99.90
15959;DHT22;8078;47.822;9.402;2022-12-18T17:26:15;-4.80;99.90
15959;DHT22;8078;47.822;9.402;2022-12-18T17:28:41;-4.80;99.90
15959;DHT22;8078;47.822;9.402;2022-12-18T17:31:20;-4.80;99.90
15959;DHT22;8078;47.822;9.402;2022-12-18T17:33:47;-4.80;99.90
15959;DHT22;8078;47.822;9.402;2022-12-18T17:36:14;-4.80;99.90
15959;DHT22;8078;47.822;9.402;2022-12-18T17:38:48;-4.70;99.90
15959;DHT22;8078;47.822;9.402;2022-12-18T17:41:14;-4.60;99.90
15959;DHT22;8078;47.822;9.402;2022-12-18T17:43:39;-4.60;99.90
15959;DHT22;8078;47.822;9.402;2022-12-18T17:46:11;-4.50;99.90